sensor_id;sensor_type;location;lat;lon;timestamp;P1;durP1;ratioP1;P2;durP2;ratioP2
43184;SDS011;28803;52.308;19.096;2023-01-06T00:01:25;5.00;;;2.58;;
43184;SDS011;28803;52.308;19.096;2023-01-06T00:03:53;5.70;;;2.30;;
43184;SDS011;28803;52.308;19.096;2023-01-06T00:06:23;6.22;;;2.65;;
43184;SDS011;28803;52.308;19.096;2023-01-06T00:08:58;4.95;;;2.70;;
43184;SDS011;28803;52.308;19.096;2023-01-06T00:11:29;4.50;;;3.15;;
43184;SDS011;28803;52.308;19.096;2023-01-06T00:13:59;4.07;;;2.50;;
43184;SDS011;28803;52.308;19.096;2023-01-06T00:16:26;3.95;;;2.67;;
43184;SDS011;28803;52.308;19.096;2023-01-06T00:18:56;4.63;;;2.80;;
43184;SDS011;28803;52.308;19.096;2023-01-06T00:21:24;7.22;;;2.92;;
43184;SDS011;28803;52.308;19.096;2023-01-06T00:23:51;4.85;;;2.50;;
43184;SDS011;28803;52.308;19.096;2023-01-06T00:26:18;5.80;;;3.17;;
43184;SDS011;28803;52.308;19.096;2023-01-06T00:28:45;10.60;;;3.35;;
43184;SDS011;28803;52.308;19.096;2023-01-06T00:31:13;6.10;;;3.33;;
43184;SDS011;28803;52.308;19.096;2023-01-06T00:39:26;4.97;;;3.15;;
43184;SDS011;28803;52.308;19.096;2023-01-06T00:41:53;4.80;;;3.15;;
43184;SDS011;28803;52.308;19.096;2023-01-06T00:44:30;9.30;;;3.35;;
43184;SDS011;28803;52.308;19.096;2023-01-06T00:47:02;4.93;;;3.35;;
43184;SDS011;28803;52.308;19.096;2023-01-06T00:49:30;5.47;;;3.38;;
43184;SDS011;28803;52.308;19.096;2023-01-06T00:56:35;3.80;;;2.65;;
43184;SDS011;28803;52.308;19.096;2023-01-06T00:59:03;5.60;;;3.08;;
43184;SDS011;28803;52.308;19.096;2023-01-06T01:01:32;4.22;;;2.65;;
43184;SDS011;28803;52.308;19.096;2023-01-06T01:04:00;4.35;;;2.65;;
43184;SDS011;28803;52.308;19.096;2023-01-06T01:06:27;5.88;;;2.70;;
43184;SDS011;28803;52.308;19.096;2023-01-06T01:08:54;3.92;;;2.40;;
43184;SDS011;28803;52.308;19.096;2023-01-06T01:11:22;4.43;;;2.80;;
43184;SDS011;28803;52.308;19.096;2023-01-06T01:14:08;5.40;;;2.75;;
43184;SDS011;28803;52.308;19.096;2023-01-06T01:16:36;5.53;;;2.58;;
43184;SDS011;28803;52.308;19.096;2023-01-06T01:19:03;4.72;;;2.55;;
43184;SDS011;28803;52.308;19.096;2023-01-06T01:21:30;7.45;;;3.53;;
43184;SDS011;28803;52.308;19.096;2023-01-06T01:23:56;5.88;;;3.47;;
43184;SDS011;28803;52.308;19.096;2023-01-06T01:26:23;4.25;;;2.67;;
43184;SDS011;28803;52.308;19.096;2023-01-06T01:28:50;5.93;;;2.58;;
43184;SDS011;28803;52.308;19.096;2023-01-06T01:31:16;4.25;;;2.75;;
43184;SDS011;28803;52.308;19.096;2023-01-06T01:33:43;5.60;;;3.00;;
43184;SDS011;28803;52.308;19.096;2023-01-06T01:36:13;6.38;;;3.40;;
43184;SDS011;28803;52.308;19.096;2023-01-06T01:38:42;5.55;;;3.25;;
43184;SDS011;28803;52.308;19.096;2023-01-06T01:41:12;5.93;;;3.33;;
43184;SDS011;28803;52.308;19.096;2023-01-06T01:46:15;4.38;;;3.03;;
43184;SDS011;28803;52.308;19.096;2023-01-06T01:48:49;5.75;;;2.78;;
43184;SDS011;28803;52.308;19.096;2023-01-06T01:51:19;5.65;;;2.75;;
43184;SDS011;28803;52.308;19.096;2023-01-06T01:53:49;8.10;;;3.53;;
43184;SDS011;28803;52.308;19.096;2023-01-06T01:56:19;5.22;;;3.60;;
43184;SDS011;28803;52.308;19.096;2023-01-06T01:58:54;6.55;;;3.38;;
43184;SDS011;28803;52.308;19.096;2023-01-06T02:01:30;5.68;;;3.35;;
43184;SDS011;28803;52.308;19.096;2023-01-06T02:03:57;7.38;;;3.92;;
43184;SDS011;28803;52.308;19.096;2023-01-06T02:06:26;9.20;;;3.33;;
43184;SDS011;28803;52.308;19.096;2023-01-06T02:09:02;5.43;;;2.92;;
43184;SDS011;28803;52.308;19.096;2023-01-06T02:11:34;3.88;;;2.28;;
43184;SDS011;28803;52.308;19.096;2023-01-06T02:14:09;4.53;;;2.65;;
43184;SDS011;28803;52.308;19.096;2023-01-06T02:17:03;4.32;;;2.05;;
43184;SDS011;28803;52.308;19.096;2023-01-06T02:20:00;3.90;;;1.80;;
43184;SDS011;28803;52.308;19.096;2023-01-06T02:34:33;3.92;;;1.80;;
43184;SDS011;28803;52.308;19.096;2023-01-06T02:37:20;3.50;;;2.20;;
43184;SDS011;28803;52.308;19.096;2023-01-06T02:45:24;5.20;;;2.60;;
43184;SDS011;28803;52.308;19.096;2023-01-06T02:56:44;3.72;;;2.00;;
43184;SDS011;28803;52.308;19.096;2023-01-06T03:04:18;3.78;;;2.47;;
43184;SDS011;28803;52.308;19.096;2023-01-06T03:07:06;2.72;;;1.48;;
43184;SDS011;28803;52.308;19.096;2023-01-06T03:09:34;3.97;;;2.20;;
43184;SDS011;28803;52.308;19.096;2023-01-06T03:12:07;4.30;;;2.08;;
43184;SDS011;28803;52.308;19.096;2023-01-06T03:14:40;4.47;;;2.85;;
43184;SDS011;28803;52.308;19.096;2023-01-06T03:17:11;4.15;;;2.88;;
43184;SDS011;28803;52.308;19.096;2023-01-06T03:19:38;4.50;;;2.53;;
43184;SDS011;28803;52.308;19.096;2023-01-06T03:22:05;5.28;;;2.90;;
43184;SDS011;28803;52.308;19.096;2023-01-06T03:24:34;5.57;;;3.00;;
43184;SDS011;28803;52.308;19.096;2023-01-06T03:27:02;5.20;;;3.10;;
43184;SDS011;28803;52.308;19.096;2023-01-06T03:29:30;4.25;;;2.53;;
43184;SDS011;28803;52.308;19.096;2023-01-06T03:40:09;6.55;;;3.22;;
43184;SDS011;28803;52.308;19.096;2023-01-06T03:42:43;6.75;;;3.08;;
43184;SDS011;28803;52.308;19.096;2023-01-06T03:58:45;6.75;;;3.88;;
43184;SDS011;28803;52.308;19.096;2023-01-06T04:01:13;6.13;;;2.80;;
43184;SDS011;28803;52.308;19.096;2023-01-06T04:03:43;4.38;;;3.13;;
43184;SDS011;28803;52.308;19.096;2023-01-06T04:06:11;8.02;;;4.10;;
43184;SDS011;28803;52.308;19.096;2023-01-06T04:08:38;5.28;;;2.75;;
43184;SDS011;28803;52.308;19.096;2023-01-06T04:11:04;5.38;;;2.72;;
43184;SDS011;28803;52.308;19.096;2023-01-06T04:13:31;5.63;;;2.90;;
43184;SDS011;28803;52.308;19.096;2023-01-06T04:15:57;6.03;;;2.50;;
43184;SDS011;28803;52.308;19.096;2023-01-06T04:18:24;5.88;;;2.50;;
43184;SDS011;28803;52.308;19.096;2023-01-06T04:20:50;5.93;;;2.90;;
43184;SDS011;28803;52.308;19.096;2023-01-06T04:23:17;6.40;;;3.10;;
43184;SDS011;28803;52.308;19.096;2023-01-06T04:25:44;8.00;;;3.78;;
43184;SDS011;28803;52.308;19.096;2023-01-06T04:28:11;11.65;;;4.68;;
43184;SDS011;28803;52.308;19.096;2023-01-06T04:30:37;8.07;;;3.28;;
43184;SDS011;28803;52.308;19.096;2023-01-06T04:33:04;9.00;;;3.92;;
43184;SDS011;28803;52.308;19.096;2023-01-06T04:35:30;5.95;;;3.65;;
43184;SDS011;28803;52.308;19.096;2023-01-06T04:37:59;7.20;;;3.72;;
43184;SDS011;28803;52.308;19.096;2023-01-06T04:40:27;4.85;;;2.60;;
43184;SDS011;28803;52.308;19.096;2023-01-06T04:42:53;7.60;;;3.35;;
43184;SDS011;28803;52.308;19.096;2023-01-06T04:45:28;6.75;;;2.83;;
43184;SDS011;28803;52.308;19.096;2023-01-06T04:47:55;4.00;;;2.90;;
43184;SDS011;28803;52.308;19.096;2023-01-06T04:50:21;5.32;;;2.85;;
43184;SDS011;28803;52.308;19.096;2023-01-06T04:52:48;9.23;;;3.10;;
43184;SDS011;28803;52.308;19.096;2023-01-06T04:55:15;5.60;;;2.95;;
43184;SDS011;28803;52.308;19.096;2023-01-06T04:57:42;4.30;;;2.70;;
43184;SDS011;28803;52.308;19.096;2023-01-06T05:00:08;4.95;;;3.15;;
43184;SDS011;28803;52.308;19.096;2023-01-06T05:02:35;5.60;;;2.50;;
43184;SDS011;28803;52.308;19.096;2023-01-06T05:05:01;3.58;;;2.47;;
43184;SDS011;28803;52.308;19.096;2023-01-06T05:07:28;6.10;;;3.03;;
43184;SDS011;28803;52.308;19.096;2023-01-06T05:09:54;5.70;;;2.65;;
43184;SDS011;28803;52.308;19.096;2023-01-06T05:12:21;6.72;;;3.00;;
43184;SDS011;28803;52.308;19.096;2023-01-06T05:14:47;3.97;;;2.67;;
43184;SDS011;28803;52.308;19.096;2023-01-06T05:17:14;6.25;;;2.30;;
43184;SDS011;28803;52.308;19.096;2023-01-06T05:19:41;3.90;;;2.45;;
43184;SDS011;28803;52.308;19.096;2023-01-06T05:22:10;5.07;;;2.85;;
43184;SDS011;28803;52.308;19.096;2023-01-06T05:24:36;8.27;;;3.38;;
43184;SDS011;28803;52.308;19.096;2023-01-06T05:27:03;7.95;;;3.92;;
43184;SDS011;28803;52.308;19.096;2023-01-06T05:29:30;4.57;;;2.80;;
43184;SDS011;28803;52.308;19.096;2023-01-06T05:31:56;6.47;;;3.13;;
43184;SDS011;28803;52.308;19.096;2023-01-06T05:34:23;5.65;;;3.00;;
43184;SDS011;28803;52.308;19.096;2023-01-06T05:36:50;5.13;;;3.50;;
43184;SDS011;28803;52.308;19.096;2023-01-06T05:39:16;5.05;;;3.45;;
43184;SDS011;28803;52.308;19.096;2023-01-06T05:41:43;4.97;;;3.20;;
43184;SDS011;28803;52.308;19.096;2023-01-06T05:44:10;6.43;;;3.40;;
43184;SDS011;28803;52.308;19.096;2023-01-06T05:46:37;5.03;;;2.97;;
43184;SDS011;28803;52.308;19.096;2023-01-06T05:49:03;4.95;;;3.35;;
43184;SDS011;28803;52.308;19.096;2023-01-06T05:51:30;5.53;;;2.97;;
43184;SDS011;28803;52.308;19.096;2023-01-06T05:53:57;6.97;;;3.17;;
43184;SDS011;28803;52.308;19.096;2023-01-06T05:56:23;4.68;;;3.38;;
43184;SDS011;28803;52.308;19.096;2023-01-06T05:58:51;4.72;;;2.95;;
43184;SDS011;28803;52.308;19.096;2023-01-06T06:01:20;4.88;;;2.95;;
43184;SDS011;28803;52.308;19.096;2023-01-06T06:03:51;8.10;;;3.03;;
43184;SDS011;28803;52.308;19.096;2023-01-06T06:06:20;4.68;;;2.53;;
43184;SDS011;28803;52.308;19.096;2023-01-06T06:08:47;6.68;;;3.60;;
43184;SDS011;28803;52.308;19.096;2023-01-06T06:11:14;7.53;;;3.50;;
43184;SDS011;28803;52.308;19.096;2023-01-06T06:13:45;6.35;;;3.92;;
43184;SDS011;28803;52.308;19.096;2023-01-06T06:16:14;8.25;;;4.20;;
43184;SDS011;28803;52.308;19.096;2023-01-06T06:18:41;6.72;;;3.80;;
43184;SDS011;28803;52.308;19.096;2023-01-06T06:21:09;5.60;;;3.22;;
43184;SDS011;28803;52.308;19.096;2023-01-06T06:23:37;6.00;;;3.13;;
43184;SDS011;28803;52.308;19.096;2023-01-06T06:26:04;7.38;;;3.85;;
43184;SDS011;28803;52.308;19.096;2023-01-06T06:28:31;5.65;;;3.72;;
43184;SDS011;28803;52.308;19.096;2023-01-06T06:31:06;7.32;;;3.20;;
43184;SDS011;28803;52.308;19.096;2023-01-06T06:33:42;5.32;;;3.47;;
43184;SDS011;28803;52.308;19.096;2023-01-06T06:36:09;7.13;;;3.28;;
43184;SDS011;28803;52.308;19.096;2023-01-06T06:38:46;5.93;;;3.42;;
43184;SDS011;28803;52.308;19.096;2023-01-06T06:41:14;6.55;;;3.38;;
43184;SDS011;28803;52.308;19.096;2023-01-06T06:43:41;6.53;;;3.45;;
43184;SDS011;28803;52.308;19.096;2023-01-06T06:46:08;5.90;;;3.30;;
43184;SDS011;28803;52.308;19.096;2023-01-06T06:48:35;4.57;;;3.10;;
43184;SDS011;28803;52.308;19.096;2023-01-06T06:51:10;5.35;;;3.10;;
43184;SDS011;28803;52.308;19.096;2023-01-06T06:53:39;6.50;;;3.47;;
43184;SDS011;28803;52.308;19.096;2023-01-06T06:56:06;6.25;;;3.08;;
43184;SDS011;28803;52.308;19.096;2023-01-06T06:58:33;7.80;;;3.65;;
43184;SDS011;28803;52.308;19.096;2023-01-06T07:01:04;6.55;;;3.88;;
43184;SDS011;28803;52.308;19.096;2023-01-06T07:03:31;7.25;;;3.63;;
43184;SDS011;28803;52.308;19.096;2023-01-06T07:05:58;5.07;;;2.72;;
43184;SDS011;28803;52.308;19.096;2023-01-06T07:08:24;6.18;;;3.50;;
43184;SDS011;28803;52.308;19.096;2023-01-06T07:10:52;5.85;;;3.03;;
43184;SDS011;28803;52.308;19.096;2023-01-06T07:13:18;4.30;;;2.60;;
43184;SDS011;28803;52.308;19.096;2023-01-06T07:15:45;5.22;;;2.90;;
43184;SDS011;28803;52.308;19.096;2023-01-06T07:18:12;4.28;;;2.40;;
43184;SDS011;28803;52.308;19.096;2023-01-06T07:20:38;5.05;;;3.00;;
43184;SDS011;28803;52.308;19.096;2023-01-06T07:23:05;8.10;;;4.00;;
43184;SDS011;28803;52.308;19.096;2023-01-06T07:25:32;5.88;;;3.13;;
43184;SDS011;28803;52.308;19.096;2023-01-06T07:27:59;5.75;;;3.13;;
43184;SDS011;28803;52.308;19.096;2023-01-06T07:30:30;5.47;;;2.83;;
43184;SDS011;28803;52.308;19.096;2023-01-06T07:32:57;5.35;;;2.83;;
43184;SDS011;28803;52.308;19.096;2023-01-06T07:35:24;8.63;;;3.33;;
43184;SDS011;28803;52.308;19.096;2023-01-06T07:37:50;7.57;;;3.72;;
43184;SDS011;28803;52.308;19.096;2023-01-06T07:40:17;8.57;;;3.92;;
43184;SDS011;28803;52.308;19.096;2023-01-06T07:42:44;8.68;;;3.40;;
43184;SDS011;28803;52.308;19.096;2023-01-06T07:45:10;7.60;;;3.65;;
43184;SDS011;28803;52.308;19.096;2023-01-06T07:47:37;6.50;;;3.13;;
43184;SDS011;28803;52.308;19.096;2023-01-06T07:50:04;6.78;;;2.78;;
43184;SDS011;28803;52.308;19.096;2023-01-06T07:52:31;6.72;;;3.00;;
43184;SDS011;28803;52.308;19.096;2023-01-06T07:54:58;7.40;;;3.55;;
43184;SDS011;28803;52.308;19.096;2023-01-06T07:57:28;4.80;;;2.97;;
43184;SDS011;28803;52.308;19.096;2023-01-06T07:59:55;7.22;;;3.58;;
43184;SDS011;28803;52.308;19.096;2023-01-06T08:02:22;5.57;;;3.03;;
43184;SDS011;28803;52.308;19.096;2023-01-06T08:04:49;6.70;;;2.85;;
43184;SDS011;28803;52.308;19.096;2023-01-06T08:07:15;3.72;;;2.58;;
43184;SDS011;28803;52.308;19.096;2023-01-06T08:09:42;4.57;;;3.00;;
43184;SDS011;28803;52.308;19.096;2023-01-06T08:12:09;5.57;;;3.45;;
43184;SDS011;28803;52.308;19.096;2023-01-06T08:14:37;5.45;;;2.90;;
43184;SDS011;28803;52.308;19.096;2023-01-06T08:17:03;5.60;;;3.33;;
43184;SDS011;28803;52.308;19.096;2023-01-06T08:19:30;5.70;;;3.03;;
43184;SDS011;28803;52.308;19.096;2023-01-06T08:21:57;5.85;;;3.78;;
43184;SDS011;28803;52.308;19.096;2023-01-06T08:24:24;4.75;;;3.25;;
43184;SDS011;28803;52.308;19.096;2023-01-06T08:26:50;5.40;;;3.47;;
43184;SDS011;28803;52.308;19.096;2023-01-06T08:29:17;4.72;;;2.85;;
43184;SDS011;28803;52.308;19.096;2023-01-06T08:31:43;5.60;;;2.92;;
43184;SDS011;28803;52.308;19.096;2023-01-06T08:34:10;6.63;;;3.80;;
43184;SDS011;28803;52.308;19.096;2023-01-06T08:36:39;6.30;;;3.30;;
43184;SDS011;28803;52.308;19.096;2023-01-06T08:39:06;5.03;;;3.13;;
43184;SDS011;28803;52.308;19.096;2023-01-06T08:41:33;6.75;;;3.40;;
43184;SDS011;28803;52.308;19.096;2023-01-06T08:44:00;6.85;;;3.70;;
43184;SDS011;28803;52.308;19.096;2023-01-06T08:46:26;8.65;;;4.05;;
43184;SDS011;28803;52.308;19.096;2023-01-06T08:48:54;8.10;;;4.40;;
43184;SDS011;28803;52.308;19.096;2023-01-06T08:51:22;5.55;;;3.05;;
43184;SDS011;28803;52.308;19.096;2023-01-06T08:53:50;5.03;;;3.25;;
43184;SDS011;28803;52.308;19.096;2023-01-06T08:56:26;7.47;;;4.10;;
43184;SDS011;28803;52.308;19.096;2023-01-06T08:58:59;6.95;;;3.65;;
43184;SDS011;28803;52.308;19.096;2023-01-06T09:01:29;7.55;;;4.63;;
43184;SDS011;28803;52.308;19.096;2023-01-06T09:03:58;9.00;;;4.68;;
43184;SDS011;28803;52.308;19.096;2023-01-06T09:06:26;8.38;;;3.72;;
43184;SDS011;28803;52.308;19.096;2023-01-06T09:08:54;8.70;;;4.57;;
43184;SDS011;28803;52.308;19.096;2023-01-06T09:11:21;9.23;;;4.55;;
43184;SDS011;28803;52.308;19.096;2023-01-06T09:13:48;7.60;;;3.55;;
43184;SDS011;28803;52.308;19.096;2023-01-06T09:16:15;9.10;;;4.40;;
43184;SDS011;28803;52.308;19.096;2023-01-06T09:18:43;7.00;;;4.63;;
43184;SDS011;28803;52.308;19.096;2023-01-06T09:21:15;7.78;;;3.80;;
43184;SDS011;28803;52.308;19.096;2023-01-06T09:23:45;6.57;;;3.95;;
43184;SDS011;28803;52.308;19.096;2023-01-06T09:26:12;6.30;;;4.63;;
43184;SDS011;28803;52.308;19.096;2023-01-06T09:28:40;6.70;;;3.97;;
43184;SDS011;28803;52.308;19.096;2023-01-06T09:31:07;6.85;;;4.10;;
43184;SDS011;28803;52.308;19.096;2023-01-06T09:33:34;7.15;;;4.15;;
43184;SDS011;28803;52.308;19.096;2023-01-06T09:36:01;6.20;;;3.90;;
43184;SDS011;28803;52.308;19.096;2023-01-06T09:38:28;9.00;;;4.50;;
43184;SDS011;28803;52.308;19.096;2023-01-06T09:43:50;8.85;;;4.68;;
43184;SDS011;28803;52.308;19.096;2023-01-06T09:46:31;8.45;;;4.43;;
43184;SDS011;28803;52.308;19.096;2023-01-06T09:57:27;12.93;;;6.20;;
43184;SDS011;28803;52.308;19.096;2023-01-06T09:59:57;9.48;;;5.00;;
43184;SDS011;28803;52.308;19.096;2023-01-06T10:02:35;7.20;;;4.50;;
43184;SDS011;28803;52.308;19.096;2023-01-06T10:05:17;6.43;;;4.25;;
43184;SDS011;28803;52.308;19.096;2023-01-06T10:08:01;7.10;;;4.75;;
43184;SDS011;28803;52.308;19.096;2023-01-06T10:10:39;6.82;;;4.68;;
43184;SDS011;28803;52.308;19.096;2023-01-06T10:16:11;11.13;;;5.90;;
43184;SDS011;28803;52.308;19.096;2023-01-06T10:19:02;12.70;;;6.18;;
43184;SDS011;28803;52.308;19.096;2023-01-06T10:24:30;16.50;;;6.28;;
43184;SDS011;28803;52.308;19.096;2023-01-06T10:27:25;12.27;;;6.22;;
43184;SDS011;28803;52.308;19.096;2023-01-06T10:29:56;10.80;;;5.43;;
43184;SDS011;28803;52.308;19.096;2023-01-06T10:32:27;7.75;;;4.68;;
43184;SDS011;28803;52.308;19.096;2023-01-06T10:34:57;6.32;;;3.95;;
43184;SDS011;28803;52.308;19.096;2023-01-06T10:37:25;8.45;;;4.50;;
43184;SDS011;28803;52.308;19.096;2023-01-06T10:40:12;8.60;;;3.95;;
43184;SDS011;28803;52.308;19.096;2023-01-06T10:43:02;7.88;;;4.40;;
43184;SDS011;28803;52.308;19.096;2023-01-06T10:48:14;8.73;;;3.88;;
43184;SDS011;28803;52.308;19.096;2023-01-06T10:50:40;6.88;;;4.10;;
43184;SDS011;28803;52.308;19.096;2023-01-06T10:53:11;7.32;;;3.58;;
43184;SDS011;28803;52.308;19.096;2023-01-06T10:55:57;9.18;;;7.35;;
43184;SDS011;28803;52.308;19.096;2023-01-06T11:01:22;6.70;;;4.40;;
43184;SDS011;28803;52.308;19.096;2023-01-06T11:04:06;6.20;;;3.60;;
43184;SDS011;28803;52.308;19.096;2023-01-06T11:06:39;7.32;;;3.80;;
43184;SDS011;28803;52.308;19.096;2023-01-06T11:11:57;5.10;;;3.45;;
43184;SDS011;28803;52.308;19.096;2023-01-06T11:14:30;6.53;;;3.50;;
43184;SDS011;28803;52.308;19.096;2023-01-06T11:17:02;6.45;;;4.03;;
43184;SDS011;28803;52.308;19.096;2023-01-06T11:19:36;7.43;;;4.10;;
43184;SDS011;28803;52.308;19.096;2023-01-06T11:22:04;10.30;;;4.37;;
43184;SDS011;28803;52.308;19.096;2023-01-06T11:24:51;7.40;;;3.70;;
43184;SDS011;28803;52.308;19.096;2023-01-06T11:27:18;9.05;;;4.28;;
43184;SDS011;28803;52.308;19.096;2023-01-06T11:29:45;5.93;;;3.30;;
43184;SDS011;28803;52.308;19.096;2023-01-06T11:32:13;7.20;;;4.20;;
43184;SDS011;28803;52.308;19.096;2023-01-06T11:39:57;5.90;;;3.17;;
43184;SDS011;28803;52.308;19.096;2023-01-06T11:42:36;6.82;;;3.53;;
43184;SDS011;28803;52.308;19.096;2023-01-06T11:45:04;4.65;;;2.50;;
43184;SDS011;28803;52.308;19.096;2023-01-06T11:47:31;5.68;;;3.10;;
43184;SDS011;28803;52.308;19.096;2023-01-06T11:49:59;5.22;;;2.78;;
43184;SDS011;28803;52.308;19.096;2023-01-06T11:52:28;4.80;;;2.58;;
43184;SDS011;28803;52.308;19.096;2023-01-06T12:03:03;4.60;;;2.75;;
43184;SDS011;28803;52.308;19.096;2023-01-06T12:05:44;8.63;;;2.78;;
43184;SDS011;28803;52.308;19.096;2023-01-06T12:11:08;7.10;;;3.85;;
43184;SDS011;28803;52.308;19.096;2023-01-06T12:13:39;6.65;;;3.38;;
43184;SDS011;28803;52.308;19.096;2023-01-06T12:16:23;9.25;;;3.80;;
43184;SDS011;28803;52.308;19.096;2023-01-06T12:19:03;6.78;;;3.08;;
43184;SDS011;28803;52.308;19.096;2023-01-06T12:21:40;5.97;;;3.40;;
43184;SDS011;28803;52.308;19.096;2023-01-06T12:24:09;7.68;;;3.72;;
43184;SDS011;28803;52.308;19.096;2023-01-06T12:26:40;5.63;;;3.30;;
43184;SDS011;28803;52.308;19.096;2023-01-06T12:29:07;10.18;;;4.22;;
43184;SDS011;28803;52.308;19.096;2023-01-06T12:32:20;7.28;;;3.65;;
43184;SDS011;28803;52.308;19.096;2023-01-06T12:34:26;9.02;;;4.55;;
43184;SDS011;28803;52.308;19.096;2023-01-06T12:37:07;7.65;;;3.65;;
43184;SDS011;28803;52.308;19.096;2023-01-06T12:39:58;8.15;;;4.22;;
43184;SDS011;28803;52.308;19.096;2023-01-06T12:45:29;10.60;;;4.03;;
43184;SDS011;28803;52.308;19.096;2023-01-06T12:48:17;9.68;;;4.65;;
43184;SDS011;28803;52.308;19.096;2023-01-06T12:51:27;9.85;;;5.13;;
43184;SDS011;28803;52.308;19.096;2023-01-06T12:54:04;9.48;;;5.63;;
43184;SDS011;28803;52.308;19.096;2023-01-06T12:56:47;7.97;;;4.38;;
43184;SDS011;28803;52.308;19.096;2023-01-06T13:16:14;8.75;;;5.00;;
43184;SDS011;28803;52.308;19.096;2023-01-06T13:18:59;8.20;;;4.63;;
43184;SDS011;28803;52.308;19.096;2023-01-06T13:21:33;7.53;;;4.07;;
43184;SDS011;28803;52.308;19.096;2023-01-06T13:24:16;7.72;;;4.13;;
43184;SDS011;28803;52.308;19.096;2023-01-06T13:27:07;13.80;;;5.95;;
43184;SDS011;28803;52.308;19.096;2023-01-06T13:30:36;12.05;;;5.45;;
43184;SDS011;28803;52.308;19.096;2023-01-06T13:41:01;8.27;;;4.38;;
43184;SDS011;28803;52.308;19.096;2023-01-06T13:43:29;11.60;;;5.53;;
43184;SDS011;28803;52.308;19.096;2023-01-06T13:48:37;9.18;;;5.82;;
43184;SDS011;28803;52.308;19.096;2023-01-06T13:51:09;12.32;;;5.18;;
43184;SDS011;28803;52.308;19.096;2023-01-06T13:53:39;10.20;;;5.55;;
43184;SDS011;28803;52.308;19.096;2023-01-06T13:58:46;12.55;;;6.68;;
43184;SDS011;28803;52.308;19.096;2023-01-06T14:03:49;8.63;;;5.47;;
43184;SDS011;28803;52.308;19.096;2023-01-06T14:08:49;13.32;;;6.78;;
43184;SDS011;28803;52.308;19.096;2023-01-06T14:11:25;11.38;;;6.40;;
43184;SDS011;28803;52.308;19.096;2023-01-06T14:14:40;19.65;;;8.07;;
43184;SDS011;28803;52.308;19.096;2023-01-06T14:16:49;13.95;;;8.43;;
43184;SDS011;28803;52.308;19.096;2023-01-06T14:19:18;16.90;;;8.35;;
43184;SDS011;28803;52.308;19.096;2023-01-06T14:21:48;17.63;;;7.45;;
43184;SDS011;28803;52.308;19.096;2023-01-06T14:24:18;18.40;;;7.95;;
43184;SDS011;28803;52.308;19.096;2023-01-06T14:39:06;19.77;;;10.85;;
43184;SDS011;28803;52.308;19.096;2023-01-06T14:41:48;19.23;;;8.98;;
43184;SDS011;28803;52.308;19.096;2023-01-06T14:44:28;22.52;;;11.38;;
43184;SDS011;28803;52.308;19.096;2023-01-06T14:47:06;18.33;;;9.98;;
43184;SDS011;28803;52.308;19.096;2023-01-06T14:49:53;35.67;;;15.55;;
43184;SDS011;28803;52.308;19.096;2023-01-06T14:52:28;41.05;;;17.35;;
43184;SDS011;28803;52.308;19.096;2023-01-06T14:54:58;25.10;;;12.30;;
43184;SDS011;28803;52.308;19.096;2023-01-06T14:57:33;19.58;;;9.32;;
43184;SDS011;28803;52.308;19.096;2023-01-06T15:00:12;23.02;;;11.32;;
43184;SDS011;28803;52.308;19.096;2023-01-06T15:02:57;45.80;;;18.83;;
43184;SDS011;28803;52.308;19.096;2023-01-06T15:05:48;20.63;;;12.23;;
43184;SDS011;28803;52.308;19.096;2023-01-06T15:08:21;19.67;;;10.68;;
43184;SDS011;28803;52.308;19.096;2023-01-06T15:13:56;50.58;;;19.90;;
43184;SDS011;28803;52.308;19.096;2023-01-06T15:16:42;21.20;;;11.70;;
43184;SDS011;28803;52.308;19.096;2023-01-06T15:19:23;24.95;;;11.85;;
43184;SDS011;28803;52.308;19.096;2023-01-06T15:22:19;29.02;;;12.07;;
43184;SDS011;28803;52.308;19.096;2023-01-06T15:25:22;25.90;;;11.88;;
43184;SDS011;28803;52.308;19.096;2023-01-06T15:27:57;22.08;;;9.63;;
43184;SDS011;28803;52.308;19.096;2023-01-06T15:30:47;21.95;;;11.25;;
43184;SDS011;28803;52.308;19.096;2023-01-06T15:33:21;20.23;;;10.55;;
43184;SDS011;28803;52.308;19.096;2023-01-06T15:35:50;44.90;;;17.30;;
43184;SDS011;28803;52.308;19.096;2023-01-06T15:38:29;23.70;;;12.05;;
43184;SDS011;28803;52.308;19.096;2023-01-06T15:40:59;21.08;;;11.55;;
43184;SDS011;28803;52.308;19.096;2023-01-06T15:43:26;26.38;;;12.82;;
43184;SDS011;28803;52.308;19.096;2023-01-06T15:46:04;29.90;;;16.27;;
43184;SDS011;28803;52.308;19.096;2023-01-06T15:48:35;23.73;;;11.30;;
43184;SDS011;28803;52.308;19.096;2023-01-06T15:51:09;22.50;;;10.18;;
43184;SDS011;28803;52.308;19.096;2023-01-06T15:53:37;21.88;;;10.90;;
43184;SDS011;28803;52.308;19.096;2023-01-06T15:56:16;21.73;;;10.43;;
43184;SDS011;28803;52.308;19.096;2023-01-06T15:58:47;23.83;;;10.25;;
43184;SDS011;28803;52.308;19.096;2023-01-06T16:01:17;23.85;;;10.90;;
43184;SDS011;28803;52.308;19.096;2023-01-06T16:03:46;20.63;;;10.27;;
43184;SDS011;28803;52.308;19.096;2023-01-06T16:14:42;21.73;;;10.20;;
43184;SDS011;28803;52.308;19.096;2023-01-06T16:19:49;23.33;;;11.57;;
43184;SDS011;28803;52.308;19.096;2023-01-06T16:22:40;21.17;;;10.52;;
43184;SDS011;28803;52.308;19.096;2023-01-06T16:27:46;21.95;;;11.75;;
43184;SDS011;28803;52.308;19.096;2023-01-06T16:30:24;23.67;;;11.43;;
43184;SDS011;28803;52.308;19.096;2023-01-06T16:32:53;22.08;;;11.82;;
43184;SDS011;28803;52.308;19.096;2023-01-06T16:35:23;25.10;;;11.85;;
43184;SDS011;28803;52.308;19.096;2023-01-06T16:37:50;23.63;;;11.90;;
43184;SDS011;28803;52.308;19.096;2023-01-06T16:43:16;20.60;;;10.32;;
43184;SDS011;28803;52.308;19.096;2023-01-06T16:45:44;22.95;;;10.80;;
43184;SDS011;28803;52.308;19.096;2023-01-06T16:48:16;27.38;;;10.55;;
43184;SDS011;28803;52.308;19.096;2023-01-06T16:50:44;29.30;;;11.10;;
43184;SDS011;28803;52.308;19.096;2023-01-06T16:53:13;27.85;;;12.55;;
43184;SDS011;28803;52.308;19.096;2023-01-06T16:55:52;25.17;;;12.48;;
43184;SDS011;28803;52.308;19.096;2023-01-06T16:58:21;28.35;;;12.70;;
43184;SDS011;28803;52.308;19.096;2023-01-06T17:00:55;28.30;;;13.05;;
43184;SDS011;28803;52.308;19.096;2023-01-06T17:03:30;31.17;;;12.85;;
43184;SDS011;28803;52.308;19.096;2023-01-06T17:06:09;33.30;;;13.88;;
43184;SDS011;28803;52.308;19.096;2023-01-06T17:08:41;23.38;;;12.55;;
43184;SDS011;28803;52.308;19.096;2023-01-06T17:11:12;27.23;;;13.27;;
43184;SDS011;28803;52.308;19.096;2023-01-06T17:13:50;33.17;;;14.38;;
43184;SDS011;28803;52.308;19.096;2023-01-06T17:16:17;36.33;;;15.43;;
43184;SDS011;28803;52.308;19.096;2023-01-06T17:18:48;31.23;;;13.75;;
43184;SDS011;28803;52.308;19.096;2023-01-06T17:21:16;25.92;;;12.98;;
43184;SDS011;28803;52.308;19.096;2023-01-06T17:24:09;29.50;;;14.48;;
43184;SDS011;28803;52.308;19.096;2023-01-06T17:26:37;26.98;;;13.05;;
43184;SDS011;28803;52.308;19.096;2023-01-06T17:29:11;33.42;;;14.73;;
43184;SDS011;28803;52.308;19.096;2023-01-06T17:31:40;32.85;;;15.02;;
43184;SDS011;28803;52.308;19.096;2023-01-06T17:37:14;31.65;;;14.38;;
43184;SDS011;28803;52.308;19.096;2023-01-06T17:39:45;34.00;;;14.60;;
43184;SDS011;28803;52.308;19.096;2023-01-06T17:44:40;31.20;;;13.65;;
43184;SDS011;28803;52.308;19.096;2023-01-06T17:49:52;34.60;;;14.65;;
43184;SDS011;28803;52.308;19.096;2023-01-06T17:52:34;38.58;;;17.17;;
43184;SDS011;28803;52.308;19.096;2023-01-06T17:57:52;30.90;;;15.00;;
43184;SDS011;28803;52.308;19.096;2023-01-06T18:00:21;31.73;;;14.65;;
43184;SDS011;28803;52.308;19.096;2023-01-06T18:05:55;28.83;;;14.07;;